createdAt,value
2017-12-31T00:02:06.582Z,7.55
2017-12-31T00:04:34.466Z,7.85
2017-12-31T00:07:02.753Z,7.50
2017-12-31T00:09:30.769Z,7.18
2017-12-31T00:11:59.638Z,5.80
2017-12-31T00:14:28.086Z,7.57
2017-12-31T00:16:56.337Z,8.40
2017-12-31T00:19:24.350Z,8.17
2017-12-31T00:21:54.065Z,12.10
2017-12-31T00:24:22.325Z,12.00
2017-12-31T00:26:54.848Z,7.50
2017-12-31T00:29:22.369Z,10.95
2017-12-31T00:31:50.157Z,11.32
2017-12-31T00:34:17.685Z,8.30
2017-12-31T00:36:45.949Z,8.88
2017-12-31T00:39:14.401Z,8.30
2017-12-31T00:41:41.947Z,13.67
2017-12-31T00:44:09.630Z,12.20
2017-12-31T00:46:37.126Z,8.97
2017-12-31T00:49:05.554Z,10.30
2017-12-31T00:51:33.047Z,14.93
2017-12-31T00:54:02.048Z,14.53
2017-12-31T00:56:31.040Z,15.80
2017-12-31T00:59:03.791Z,15.07
2017-12-31T01:01:31.317Z,26.50
2017-12-31T01:03:58.817Z,17.90
2017-12-31T01:06:27.978Z,23.43
2017-12-31T01:08:58.314Z,25.20
2017-12-31T01:11:25.990Z,26.87
2017-12-31T01:16:28.718Z,21.10
2017-12-31T01:18:56.342Z,36.13
2017-12-31T01:21:23.865Z,32.03
2017-12-31T01:23:51.386Z,24.50
2017-12-31T01:26:18.877Z,22.67
2017-12-31T01:28:46.369Z,38.07
2017-12-31T01:31:13.874Z,31.63
2017-12-31T01:33:42.122Z,25.70
2017-12-31T01:36:09.605Z,23.80
2017-12-31T01:38:37.117Z,27.60
2017-12-31T01:41:04.794Z,27.50
2017-12-31T01:43:32.348Z,15.43
2017-12-31T01:45:59.852Z,25.83
2017-12-31T01:48:28.847Z,27.17
2017-12-31T01:50:56.334Z,25.47
2017-12-31T01:53:24.070Z,29.27
2017-12-31T01:55:52.321Z,31.17
2017-12-31T01:58:19.813Z,21.40
2017-12-31T02:00:50.166Z,24.17
2017-12-31T02:03:18.007Z,15.57
2017-12-31T02:05:46.433Z,17.27
2017-12-31T02:08:13.945Z,20.80
2017-12-31T02:10:42.198Z,10.87
2017-12-31T02:13:09.818Z,23.30
2017-12-31T02:15:37.536Z,30.07
2017-12-31T02:18:05.869Z,19.97
2017-12-31T02:20:33.388Z,19.70
2017-12-31T02:23:01.670Z,15.13
2017-12-31T02:25:29.156Z,25.10
2017-12-31T02:27:56.822Z,23.07
2017-12-31T02:30:24.328Z,28.67
2017-12-31T02:32:52.582Z,18.77
2017-12-31T02:35:21.013Z,19.73
2017-12-31T02:37:48.640Z,20.90
2017-12-31T02:40:16.893Z,26.13
2017-12-31T02:42:44.384Z,23.53
2017-12-31T02:45:12.666Z,24.30
2017-12-31T02:47:41.487Z,16.03
2017-12-31T02:50:08.974Z,20.20
2017-12-31T02:52:36.469Z,14.63
2017-12-31T02:55:04.731Z,24.37
2017-12-31T02:57:32.213Z,21.33
2017-12-31T03:00:01.197Z,21.20
2017-12-31T03:02:30.435Z,20.80
2017-12-31T03:05:02.070Z,16.90
2017-12-31T03:07:30.670Z,21.63
2017-12-31T03:09:59.124Z,14.40
2017-12-31T03:12:27.405Z,22.27
2017-12-31T03:14:55.682Z,20.60
2017-12-31T03:17:23.167Z,13.40
2017-12-31T03:19:51.414Z,28.40
2017-12-31T03:22:18.938Z,22.47
2017-12-31T03:24:46.414Z,20.57
2017-12-31T03:27:13.912Z,22.50
2017-12-31T03:29:42.058Z,25.23
2017-12-31T03:32:11.097Z,23.50
2017-12-31T03:34:38.609Z,28.83
2017-12-31T03:37:08.136Z,15.60
2017-12-31T03:39:36.738Z,22.47
2017-12-31T03:42:04.326Z,21.47
2017-12-31T03:44:31.813Z,14.73
2017-12-31T03:47:00.069Z,16.17
2017-12-31T03:49:27.577Z,19.60
2017-12-31T03:51:55.072Z,22.10
2017-12-31T03:54:22.636Z,16.97
2017-12-31T03:56:50.253Z,17.30
2017-12-31T03:59:18.113Z,14.60
2017-12-31T04:01:46.423Z,14.93
2017-12-31T04:04:13.917Z,16.33
2017-12-31T04:06:41.412Z,13.20
2017-12-31T04:09:08.902Z,18.20
2017-12-31T04:11:36.417Z,17.93
2017-12-31T04:14:04.667Z,24.93
2017-12-31T04:16:32.153Z,13.07
2017-12-31T04:19:00.426Z,12.63
2017-12-31T04:21:28.678Z,15.83
2017-12-31T04:23:56.170Z,12.70
2017-12-31T04:26:24.445Z,10.17
2017-12-31T04:28:52.710Z,8.13
2017-12-31T04:31:20.978Z,15.83
2017-12-31T04:33:49.273Z,17.10
2017-12-31T04:36:17.391Z,12.33
2017-12-31T04:38:44.842Z,14.50
2017-12-31T04:41:13.198Z,10.10
2017-12-31T04:43:41.611Z,20.20
2017-12-31T04:46:09.089Z,14.90
2017-12-31T04:48:36.697Z,17.93
2017-12-31T04:51:04.319Z,9.10
2017-12-31T04:53:31.853Z,11.77
2017-12-31T04:55:59.350Z,10.20
2017-12-31T04:58:27.604Z,12.97
2017-12-31T05:00:55.091Z,14.43
2017-12-31T05:03:23.361Z,16.80
2017-12-31T05:05:51.621Z,11.33
2017-12-31T05:08:20.018Z,13.77
2017-12-31T05:10:48.303Z,14.97
2017-12-31T05:13:16.550Z,11.40
2017-12-31T05:15:44.042Z,14.57
2017-12-31T05:18:13.742Z,13.63
2017-12-31T05:20:42.006Z,16.37
2017-12-31T05:23:09.791Z,10.03
2017-12-31T05:25:37.333Z,14.23
2017-12-31T05:28:05.722Z,16.90
2017-12-31T05:30:33.406Z,10.70
2017-12-31T05:33:01.746Z,14.60
2017-12-31T05:35:29.376Z,9.20
2017-12-31T05:37:56.861Z,16.67
2017-12-31T05:40:24.534Z,12.27
2017-12-31T05:42:52.066Z,10.20
2017-12-31T05:45:20.648Z,14.23
2017-12-31T05:47:48.157Z,7.67
2017-12-31T05:50:16.422Z,11.10
2017-12-31T05:52:44.764Z,8.77
2017-12-31T05:55:12.258Z,9.67
2017-12-31T05:57:39.778Z,12.03
2017-12-31T06:00:07.420Z,11.97
2017-12-31T06:02:34.945Z,10.03
2017-12-31T06:05:02.450Z,10.53
2017-12-31T06:07:29.946Z,14.43
2017-12-31T06:09:57.461Z,10.40
2017-12-31T06:12:24.938Z,8.97
2017-12-31T06:14:52.426Z,11.20
2017-12-31T06:17:19.930Z,10.23
2017-12-31T06:19:47.512Z,9.73
2017-12-31T06:22:14.989Z,8.73
2017-12-31T06:24:42.506Z,8.10
2017-12-31T06:27:10.171Z,7.57
2017-12-31T06:29:37.651Z,8.17
2017-12-31T06:32:05.297Z,12.67
2017-12-31T06:34:32.781Z,10.50
2017-12-31T06:37:00.265Z,7.17
2017-12-31T06:39:28.661Z,7.33
2017-12-31T06:41:57.010Z,8.63
2017-12-31T06:44:25.378Z,4.73
2017-12-31T06:46:53.702Z,9.70
2017-12-31T06:49:21.285Z,9.13
2017-12-31T06:51:48.769Z,23.03
2017-12-31T06:54:16.278Z,11.03
2017-12-31T06:56:43.757Z,8.67
2017-12-31T06:59:11.242Z,9.40
2017-12-31T07:01:38.847Z,8.87
2017-12-31T07:04:06.389Z,7.70
2017-12-31T07:06:33.943Z,8.90
2017-12-31T07:09:01.497Z,14.37
2017-12-31T07:11:28.982Z,12.10
2017-12-31T07:13:57.258Z,13.53
2017-12-31T07:16:25.502Z,8.83
2017-12-31T07:18:53.021Z,8.73
2017-12-31T07:21:21.546Z,11.57
2017-12-31T07:23:49.050Z,11.53
2017-12-31T07:26:16.533Z,13.97
2017-12-31T07:28:45.218Z,12.70
2017-12-31T07:31:12.727Z,16.40
2017-12-31T07:33:40.209Z,10.50
2017-12-31T07:36:07.796Z,8.57
2017-12-31T07:38:35.297Z,11.20
2017-12-31T07:41:02.769Z,10.43
2017-12-31T07:43:31.026Z,11.20
2017-12-31T07:45:58.541Z,7.60
2017-12-31T07:48:26.163Z,12.90
2017-12-31T07:50:54.414Z,9.63
2017-12-31T07:53:21.974Z,8.87
2017-12-31T07:55:49.465Z,22.87
2017-12-31T07:58:16.966Z,9.90
2017-12-31T08:00:44.461Z,8.37
2017-12-31T08:03:11.934Z,9.23
2017-12-31T08:05:39.542Z,9.80
2017-12-31T08:08:07.088Z,15.30
2017-12-31T08:10:34.577Z,21.00
2017-12-31T08:13:02.078Z,11.53
2017-12-31T08:15:30.646Z,10.40
2017-12-31T08:17:58.922Z,12.67
2017-12-31T08:20:26.397Z,9.03
2017-12-31T08:22:54.014Z,13.23
2017-12-31T08:25:21.553Z,9.87
2017-12-31T08:27:49.553Z,15.53
2017-12-31T08:30:17.209Z,10.90
2017-12-31T08:32:44.706Z,11.83
2017-12-31T08:35:12.195Z,16.37
2017-12-31T08:37:39.713Z,12.97
2017-12-31T08:40:07.963Z,8.97
2017-12-31T08:42:35.445Z,8.73
2017-12-31T08:45:03.078Z,13.37
2017-12-31T08:47:30.738Z,10.50
2017-12-31T08:49:59.423Z,11.23
2017-12-31T08:52:27.407Z,14.40
2017-12-31T08:54:56.186Z,6.80
2017-12-31T08:57:23.678Z,9.13
2017-12-31T08:59:52.994Z,13.10
2017-12-31T09:02:23.382Z,10.50
2017-12-31T09:04:52.413Z,12.77
2017-12-31T09:07:21.620Z,9.60
2017-12-31T09:09:49.875Z,14.27
2017-12-31T09:12:17.999Z,11.70
2017-12-31T09:14:46.278Z,6.13
2017-12-31T09:17:14.269Z,11.83
2017-12-31T09:19:41.769Z,8.80
2017-12-31T09:22:10.714Z,7.47
2017-12-31T09:24:38.205Z,8.30
2017-12-31T09:27:08.271Z,5.27
2017-12-31T09:29:35.972Z,7.80
2017-12-31T09:32:03.452Z,6.53
2017-12-31T09:34:32.537Z,8.87
2017-12-31T09:37:00.770Z,11.70
2017-12-31T09:39:29.605Z,6.40
2017-12-31T09:41:57.809Z,9.37
2017-12-31T09:44:28.626Z,9.87
2017-12-31T09:46:56.822Z,9.97
2017-12-31T09:49:24.497Z,9.93
2017-12-31T09:51:52.972Z,8.97
2017-12-31T09:54:20.462Z,9.00
2017-12-31T09:56:49.923Z,6.70
2017-12-31T09:59:17.444Z,14.87
2017-12-31T10:01:44.927Z,6.33
2017-12-31T10:04:13.342Z,9.93
2017-12-31T10:06:44.443Z,8.93
2017-12-31T10:09:12.356Z,13.50
2017-12-31T10:11:40.675Z,6.10
2017-12-31T10:14:08.410Z,6.73
2017-12-31T10:16:36.125Z,4.90
2017-12-31T10:19:05.978Z,4.17
2017-12-31T10:21:33.568Z,5.23
2017-12-31T10:24:01.846Z,7.73
2017-12-31T10:26:30.313Z,7.10
2017-12-31T10:28:57.924Z,4.97
2017-12-31T10:31:27.046Z,5.20
2017-12-31T10:33:56.742Z,8.10
2017-12-31T10:36:27.400Z,8.83
2017-12-31T10:38:57.705Z,8.73
2017-12-31T10:41:25.215Z,10.73
2017-12-31T10:43:52.698Z,5.83
2017-12-31T10:46:22.965Z,5.57
2017-12-31T10:48:50.633Z,8.27
2017-12-31T10:51:19.099Z,6.53
2017-12-31T10:53:49.094Z,14.13
2017-12-31T10:56:17.785Z,9.00
2017-12-31T10:58:46.549Z,6.03
2017-12-31T11:01:14.965Z,6.13
2017-12-31T11:03:43.587Z,8.43
2017-12-31T11:06:11.340Z,12.40
2017-12-31T11:08:39.867Z,4.97
2017-12-31T11:11:08.332Z,8.20
2017-12-31T11:13:35.843Z,3.50
2017-12-31T11:16:03.399Z,4.47
2017-12-31T11:18:30.974Z,5.67
2017-12-31T11:20:58.482Z,6.40
2017-12-31T11:23:29.501Z,3.77
2017-12-31T11:25:56.990Z,7.23
2017-12-31T11:28:25.482Z,3.60
2017-12-31T11:30:54.267Z,10.43
2017-12-31T11:33:23.464Z,4.53
2017-12-31T11:35:51.042Z,10.50
2017-12-31T11:38:18.886Z,3.57
2017-12-31T11:40:48.197Z,3.80
2017-12-31T11:43:17.252Z,4.90
2017-12-31T11:45:44.770Z,1.90
2017-12-31T11:48:14.434Z,5.10
2017-12-31T11:50:42.788Z,10.73
2017-12-31T11:53:14.502Z,4.90
2017-12-31T11:55:42.693Z,4.20
2017-12-31T11:58:11.104Z,2.90
2017-12-31T12:00:42.109Z,6.00
2017-12-31T12:03:09.590Z,5.77
2017-12-31T12:05:37.074Z,4.33
2017-12-31T12:08:04.789Z,3.23
2017-12-31T12:10:33.025Z,8.70
2017-12-31T12:13:01.985Z,5.07
2017-12-31T12:15:32.772Z,3.20
2017-12-31T12:18:01.111Z,3.67
2017-12-31T12:20:28.586Z,5.70
2017-12-31T12:22:56.854Z,2.93
2017-12-31T12:25:26.990Z,1.67
2017-12-31T12:27:55.846Z,6.77
2017-12-31T12:30:26.111Z,7.40
2017-12-31T12:32:54.980Z,3.10
2017-12-31T12:35:22.585Z,7.10
2017-12-31T12:37:51.130Z,2.93
2017-12-31T12:40:19.246Z,3.30
2017-12-31T12:42:47.126Z,3.90
2017-12-31T12:45:14.622Z,4.23
2017-12-31T12:50:16.117Z,2.70
2017-12-31T12:52:43.766Z,2.17
2017-12-31T12:55:13.610Z,5.00
2017-12-31T12:57:41.250Z,3.97
2017-12-31T13:00:10.951Z,3.37
2017-12-31T13:02:39.286Z,1.77
2017-12-31T13:05:08.318Z,5.03
2017-12-31T13:07:40.193Z,2.90
2017-12-31T13:10:07.815Z,4.30
2017-12-31T13:12:37.134Z,5.00
2017-12-31T13:15:10.924Z,2.47
2017-12-31T13:17:40.737Z,5.63
2017-12-31T13:20:10.309Z,6.23
2017-12-31T13:22:50.041Z,8.57
2017-12-31T13:25:19.159Z,5.17
2017-12-31T13:27:48.293Z,3.50
2017-12-31T13:30:18.496Z,5.10
2017-12-31T13:32:46.394Z,3.10
2017-12-31T13:35:14.562Z,5.90
2017-12-31T13:37:42.834Z,3.30
2017-12-31T13:40:11.568Z,6.00
2017-12-31T13:42:39.159Z,3.60
2017-12-31T13:45:08.537Z,8.13
2017-12-31T13:47:45.120Z,5.10
2017-12-31T13:52:48.582Z,1.57
2017-12-31T14:01:25.448Z,1.80
2017-12-31T14:43:05.816Z,1.52
2017-12-31T14:58:02.172Z,4.05
2017-12-31T15:03:31.754Z,6.43
2017-12-31T15:20:05.492Z,1.93
2017-12-31T15:25:57.853Z,2.10
2017-12-31T15:31:07.259Z,3.37
2017-12-31T15:33:40.855Z,2.22
2017-12-31T15:36:09.631Z,3.62
2017-12-31T15:38:43.462Z,2.35
2017-12-31T15:41:13.808Z,2.22
2017-12-31T15:43:45.135Z,2.65
2017-12-31T15:46:17.482Z,4.10
2017-12-31T15:48:45.733Z,2.30
2017-12-31T15:51:14.135Z,2.75
2017-12-31T15:53:44.877Z,2.67
2017-12-31T15:56:14.166Z,2.85
2017-12-31T15:58:45.065Z,7.55
2017-12-31T16:01:12.654Z,4.15
2017-12-31T16:03:41.001Z,5.95
2017-12-31T16:06:10.114Z,5.65
2017-12-31T16:08:39.500Z,6.50
2017-12-31T16:11:11.526Z,8.70
2017-12-31T16:13:39.983Z,4.53
2017-12-31T16:16:09.772Z,5.37
2017-12-31T16:18:38.446Z,6.33
2017-12-31T16:21:10.274Z,7.60
2017-12-31T16:23:42.703Z,12.18
2017-12-31T16:26:13.072Z,5.87
2017-12-31T16:28:59.840Z,13.43
2017-12-31T16:31:31.401Z,9.83
2017-12-31T16:33:59.913Z,10.18
2017-12-31T16:36:27.441Z,5.60
2017-12-31T16:38:57.389Z,5.43
2017-12-31T16:41:24.954Z,4.60
2017-12-31T16:43:54.318Z,3.87
2017-12-31T16:46:27.062Z,3.93
2017-12-31T16:48:58.382Z,6.53
2017-12-31T16:51:27.515Z,4.00
2017-12-31T16:53:55.554Z,4.20
2017-12-31T16:56:26.000Z,4.22
2017-12-31T16:59:10.937Z,6.70
2017-12-31T17:01:46.341Z,4.83
2017-12-31T17:04:18.343Z,3.60
2017-12-31T17:06:53.383Z,6.70
2017-12-31T17:09:35.381Z,5.72
2017-12-31T17:12:14.571Z,6.32
2017-12-31T17:17:25.337Z,4.35
2017-12-31T17:19:54.709Z,3.58
2017-12-31T17:22:23.334Z,2.70
2017-12-31T17:24:53.332Z,2.72
2017-12-31T17:27:24.006Z,2.92
2017-12-31T17:29:56.936Z,3.50
2017-12-31T17:32:30.953Z,3.25
2017-12-31T17:35:02.633Z,4.25
2017-12-31T17:43:32.299Z,5.20
2017-12-31T17:51:20.397Z,4.85
2017-12-31T18:05:36.403Z,2.55
2017-12-31T18:08:04.557Z,3.55
2017-12-31T18:10:37.607Z,4.32
2017-12-31T18:13:06.501Z,2.17
2017-12-31T18:15:34.039Z,1.73
2017-12-31T18:18:02.445Z,3.00
2017-12-31T18:20:29.962Z,1.75
2017-12-31T18:22:57.442Z,2.45
2017-12-31T18:25:24.926Z,2.20
2017-12-31T18:27:52.444Z,3.67
2017-12-31T18:30:19.934Z,1.80
2017-12-31T18:32:47.423Z,1.85
2017-12-31T18:35:14.930Z,1.30
2017-12-31T18:37:42.406Z,1.48
2017-12-31T18:40:09.888Z,1.92
2017-12-31T18:42:37.426Z,1.60
2017-12-31T18:45:05.146Z,1.98
2017-12-31T18:47:32.707Z,2.70
2017-12-31T18:50:00.202Z,1.67
2017-12-31T18:52:27.686Z,2.17
2017-12-31T18:54:55.938Z,3.33
2017-12-31T18:57:23.455Z,1.52
2017-12-31T18:59:51.209Z,1.83
2017-12-31T19:02:18.790Z,2.08
2017-12-31T19:04:46.301Z,2.05
2017-12-31T19:07:14.557Z,2.05
2017-12-31T19:09:42.037Z,1.67
2017-12-31T19:12:10.312Z,2.80
2017-12-31T19:14:38.557Z,2.10
2017-12-31T19:17:06.033Z,3.65
2017-12-31T19:19:34.314Z,2.47
2017-12-31T19:22:02.562Z,3.12
2017-12-31T19:24:30.178Z,1.75
2017-12-31T19:26:58.530Z,1.85
2017-12-31T19:29:26.782Z,1.80
2017-12-31T19:31:54.265Z,2.80
2017-12-31T19:34:22.537Z,1.60
2017-12-31T19:36:50.909Z,2.50
2017-12-31T19:39:19.170Z,1.73
2017-12-31T19:41:46.665Z,1.95
2017-12-31T19:44:14.919Z,2.80
2017-12-31T19:46:42.397Z,5.28
2017-12-31T19:49:10.782Z,2.20
2017-12-31T19:51:38.334Z,1.90
2017-12-31T19:54:06.578Z,1.55
2017-12-31T19:56:34.092Z,2.45
2017-12-31T19:59:01.577Z,4.47
2017-12-31T20:01:29.048Z,1.35
2017-12-31T20:03:56.720Z,2.35
2017-12-31T20:06:24.324Z,1.87
2017-12-31T20:08:53.100Z,6.40
2017-12-31T20:11:21.357Z,2.58
2017-12-31T20:13:49.206Z,1.67
2017-12-31T20:16:16.703Z,1.42
2017-12-31T20:18:44.210Z,2.35
2017-12-31T20:21:11.720Z,2.95
2017-12-31T20:23:39.203Z,3.33
2017-12-31T20:26:06.713Z,2.28
2017-12-31T20:28:34.957Z,1.92
2017-12-31T20:31:02.518Z,2.50
2017-12-31T20:33:30.015Z,3.12
2017-12-31T20:35:58.514Z,3.22
2017-12-31T20:38:26.128Z,2.15
2017-12-31T20:40:53.781Z,3.90
2017-12-31T20:43:21.259Z,3.92
2017-12-31T20:45:48.740Z,3.40
2017-12-31T20:48:16.994Z,2.28
2017-12-31T20:50:44.467Z,2.35
2017-12-31T20:53:12.138Z,1.92
2017-12-31T20:55:39.733Z,2.92
2017-12-31T20:58:07.221Z,2.80
2017-12-31T21:00:34.732Z,4.20
2017-12-31T21:03:02.229Z,2.22
2017-12-31T21:05:30.268Z,3.62
2017-12-31T21:07:58.717Z,4.22
2017-12-31T21:10:26.237Z,5.87
2017-12-31T21:12:53.730Z,1.95
2017-12-31T21:15:21.205Z,3.85
2017-12-31T21:17:48.965Z,7.30
2017-12-31T21:22:51.340Z,4.55
2017-12-31T21:25:18.850Z,6.60
2017-12-31T21:27:46.458Z,8.90
2017-12-31T21:30:13.982Z,3.47
2017-12-31T21:32:41.457Z,4.87
2017-12-31T21:35:08.950Z,2.12
2017-12-31T21:37:37.193Z,4.43
2017-12-31T21:40:04.661Z,5.47
2017-12-31T21:42:32.169Z,4.25
2017-12-31T21:45:00.585Z,3.12
2017-12-31T21:47:28.269Z,6.28
2017-12-31T21:49:55.742Z,2.95
2017-12-31T21:52:23.982Z,4.07
2017-12-31T21:54:51.669Z,3.75
2017-12-31T21:57:19.921Z,2.85
2017-12-31T21:59:47.438Z,4.80
2017-12-31T22:02:14.973Z,4.90
2017-12-31T22:04:43.213Z,4.75
2017-12-31T22:07:10.810Z,5.62
2017-12-31T22:09:38.367Z,5.80
2017-12-31T22:12:05.918Z,5.37
2017-12-31T22:14:34.213Z,6.25
2017-12-31T22:17:01.714Z,3.85
2017-12-31T22:19:29.781Z,6.15
2017-12-31T22:21:57.258Z,5.03
2017-12-31T22:24:24.837Z,5.40
2017-12-31T22:26:53.321Z,10.45
2017-12-31T22:29:20.958Z,9.30
2017-12-31T22:31:49.956Z,6.53
2017-12-31T22:34:18.197Z,6.95
2017-12-31T22:36:45.696Z,7.47
2017-12-31T22:39:13.283Z,7.30
2017-12-31T22:41:40.810Z,4.25
2017-12-31T22:44:09.884Z,15.07
2017-12-31T22:46:38.362Z,9.00
2017-12-31T22:49:06.051Z,8.85
2017-12-31T22:51:34.464Z,9.98
2017-12-31T22:54:02.119Z,6.68
2017-12-31T22:56:30.545Z,10.95
2017-12-31T22:58:58.026Z,6.30
2017-12-31T23:01:25.513Z,11.23
2017-12-31T23:03:53.294Z,15.27
2017-12-31T23:06:20.801Z,27.17
2017-12-31T23:08:48.290Z,16.62
2017-12-31T23:11:16.641Z,16.23
2017-12-31T23:13:44.305Z,16.77
2017-12-31T23:16:11.849Z,12.18
2017-12-31T23:18:39.334Z,16.40
2017-12-31T23:24:29.023Z,15.38
2017-12-31T23:26:56.894Z,10.88
2017-12-31T23:29:24.381Z,14.63
2017-12-31T23:31:52.000Z,15.38
2017-12-31T23:34:19.553Z,5.25
2017-12-31T23:36:47.937Z,8.65
2017-12-31T23:39:15.470Z,55.08
2017-12-31T23:41:43.862Z,12.65
2017-12-31T23:44:12.337Z,13.62
2017-12-31T23:46:40.728Z,9.35
2017-12-31T23:49:08.395Z,5.43
2017-12-31T23:51:36.161Z,15.52
2017-12-31T23:54:03.820Z,21.08
2017-12-31T23:56:31.332Z,5.03
2017-12-31T23:58:58.950Z,9.15
